createdAt,value
2019-02-25T00:00:57.542Z,16.63
2019-02-25T00:03:25.454Z,17.40
2019-02-25T00:05:53.404Z,17.07
2019-02-25T00:08:21.363Z,17.33
2019-02-25T00:10:49.368Z,18.10
2019-02-25T00:13:17.320Z,17.10
2019-02-25T00:15:45.263Z,17.40
2019-02-25T00:18:13.234Z,16.20
2019-02-25T00:20:41.240Z,17.10
2019-02-25T00:23:09.197Z,16.57
2019-02-25T00:25:37.151Z,16.47
2019-02-25T00:28:05.207Z,16.50
2019-02-25T00:30:33.080Z,16.03
2019-02-25T00:33:01.079Z,16.27
2019-02-25T00:35:29.083Z,16.00
2019-02-25T00:37:56.994Z,15.87
2019-02-25T00:40:24.951Z,15.23
2019-02-25T00:42:52.868Z,14.40
2019-02-25T00:45:20.810Z,16.30
2019-02-25T00:47:48.783Z,16.07
2019-02-25T00:50:16.764Z,15.83
2019-02-25T00:52:44.723Z,17.40
2019-02-25T00:55:13.091Z,16.67
2019-02-25T00:57:41.098Z,18.10
2019-02-25T01:00:10.993Z,18.27
2019-02-25T01:02:39.049Z,18.13
2019-02-25T01:05:07.032Z,18.70
2019-02-25T01:07:35.096Z,18.50
2019-02-25T01:10:03.073Z,18.33
2019-02-25T01:12:31.033Z,17.60
2019-02-25T01:14:59.028Z,16.57
2019-02-25T01:17:26.969Z,16.23
2019-02-25T01:19:54.947Z,16.47
2019-02-25T01:22:22.920Z,17.20
2019-02-25T01:24:50.970Z,17.07
2019-02-25T01:27:18.954Z,18.30
2019-02-25T01:29:47.334Z,16.67
2019-02-25T01:32:15.287Z,17.60
2019-02-25T01:34:43.207Z,15.93
2019-02-25T01:37:11.152Z,15.80
2019-02-25T01:39:39.092Z,16.17
2019-02-25T01:42:07.078Z,16.60
2019-02-25T01:44:35.042Z,16.87
2019-02-25T01:47:03.014Z,16.70
2019-02-25T01:49:30.980Z,16.07
2019-02-25T01:51:58.943Z,18.17
2019-02-25T01:54:26.938Z,18.20
2019-02-25T01:56:55.300Z,18.20
2019-02-25T01:59:23.255Z,17.20
2019-02-25T02:01:51.279Z,18.77
2019-02-25T02:04:19.404Z,17.33
2019-02-25T02:06:47.379Z,18.37
2019-02-25T02:09:15.661Z,17.97
2019-02-25T02:11:43.606Z,17.73
2019-02-25T02:14:11.562Z,18.63
2019-02-25T02:16:39.471Z,17.00
2019-02-25T02:19:07.415Z,19.23
2019-02-25T02:21:35.389Z,17.10
2019-02-25T02:24:03.389Z,18.50
2019-02-25T02:26:31.333Z,18.00
2019-02-25T02:28:59.308Z,17.13
2019-02-25T02:31:27.288Z,18.50
2019-02-25T02:33:55.245Z,18.97
2019-02-25T02:36:23.234Z,17.97
2019-02-25T02:38:51.216Z,17.80
2019-02-25T02:41:19.082Z,18.03
2019-02-25T02:43:47.129Z,16.60
2019-02-25T02:46:23.706Z,17.70
2019-02-25T02:48:56.201Z,18.30
2019-02-25T02:51:24.217Z,17.30
2019-02-25T02:53:52.180Z,17.10
2019-02-25T02:56:20.204Z,20.53
2019-02-25T02:58:48.075Z,19.03
2019-02-25T03:01:16.129Z,17.90
2019-02-25T03:03:44.071Z,17.77
2019-02-25T03:06:12.052Z,20.40
2019-02-25T03:08:40.047Z,18.40
2019-02-25T03:11:08.203Z,18.27
2019-02-25T03:13:36.151Z,19.90
2019-02-25T03:16:04.117Z,18.40
2019-02-25T03:18:32.101Z,17.80
2019-02-25T03:21:00.055Z,18.00
2019-02-25T03:23:28.054Z,18.50
2019-02-25T03:25:56.006Z,17.17
2019-02-25T03:28:23.983Z,18.30
2019-02-25T03:30:52.040Z,16.67
2019-02-25T03:33:20.028Z,17.63
2019-02-25T03:35:48.039Z,17.37
2019-02-25T03:38:16.348Z,18.63
2019-02-25T03:40:44.335Z,18.73
2019-02-25T03:43:12.287Z,18.33
2019-02-25T03:45:40.321Z,18.30
2019-02-25T03:48:08.229Z,17.63
2019-02-25T03:50:36.205Z,18.60
2019-02-25T03:53:04.184Z,19.57
2019-02-25T03:55:32.438Z,18.43
2019-02-25T03:58:00.400Z,19.47
2019-02-25T04:00:28.379Z,17.57
2019-02-25T04:02:56.378Z,17.07
2019-02-25T04:05:24.316Z,19.23
2019-02-25T04:07:52.293Z,19.50
2019-02-25T04:10:20.272Z,17.30
2019-02-25T04:12:48.213Z,17.83
2019-02-25T04:15:18.363Z,19.13
2019-02-25T04:17:46.314Z,17.90
2019-02-25T04:20:14.753Z,17.80
2019-02-25T04:22:42.693Z,17.87
2019-02-25T04:25:10.832Z,17.60
2019-02-25T04:27:38.864Z,20.60
2019-02-25T04:30:07.819Z,18.30
2019-02-25T04:32:36.396Z,18.33
2019-02-25T04:35:06.419Z,19.43
2019-02-25T04:37:34.388Z,18.90
2019-02-25T04:40:02.333Z,18.20
2019-02-25T04:42:30.280Z,18.57
2019-02-25T04:44:58.330Z,17.60
2019-02-25T04:47:26.241Z,17.97
2019-02-25T04:49:55.238Z,17.37
2019-02-25T04:52:23.225Z,19.13
2019-02-25T04:54:51.202Z,16.07
2019-02-25T04:57:19.267Z,18.40
2019-02-25T04:59:47.339Z,18.47
2019-02-25T05:02:15.291Z,18.30
2019-02-25T05:04:43.254Z,19.47
2019-02-25T05:07:11.240Z,18.10
2019-02-25T05:09:39.193Z,18.90
2019-02-25T05:12:07.169Z,19.70
2019-02-25T05:14:35.151Z,18.20
2019-02-25T05:17:03.130Z,18.87
2019-02-25T05:19:31.173Z,18.80
2019-02-25T05:21:59.139Z,18.30
2019-02-25T05:24:27.141Z,17.90
2019-02-25T05:26:55.186Z,18.63
2019-02-25T05:29:23.173Z,19.47
2019-02-25T05:31:51.220Z,20.30
2019-02-25T05:34:19.204Z,18.77
2019-02-25T05:36:47.203Z,18.90
2019-02-25T05:39:15.294Z,19.57
2019-02-25T05:41:43.220Z,18.97
2019-02-25T05:44:11.201Z,19.17
2019-02-25T05:46:39.209Z,18.80
2019-02-25T05:49:07.244Z,19.20
2019-02-25T05:51:35.737Z,20.47
2019-02-25T05:54:03.788Z,19.70
2019-02-25T05:56:31.737Z,17.37
2019-02-25T05:58:59.764Z,19.13
2019-02-25T06:01:27.830Z,19.40
2019-02-25T06:03:55.790Z,17.87
2019-02-25T06:06:23.843Z,19.40
2019-02-25T06:08:51.911Z,17.67
2019-02-25T06:11:19.993Z,18.67
2019-02-25T06:13:48.041Z,19.43
2019-02-25T06:16:16.121Z,21.50
2019-02-25T06:18:44.093Z,18.77
2019-02-25T06:21:12.148Z,22.67
2019-02-25T06:23:40.131Z,20.03
2019-02-25T06:26:08.086Z,20.33
2019-02-25T06:28:36.068Z,19.10
2019-02-25T06:31:04.034Z,20.90
2019-02-25T06:33:32.004Z,21.53
2019-02-25T06:36:00.089Z,18.97
2019-02-25T06:38:28.308Z,20.10
2019-02-25T06:40:56.437Z,21.50
2019-02-25T06:43:27.499Z,20.70
2019-02-25T06:45:55.739Z,20.90
2019-02-25T06:48:23.716Z,24.60
2019-02-25T06:50:51.671Z,21.67
2019-02-25T06:53:19.659Z,20.23
2019-02-25T06:55:47.541Z,22.10
2019-02-25T06:58:15.587Z,52.60
2019-02-25T07:00:44.556Z,75.33
2019-02-25T07:03:13.617Z,43.10
2019-02-25T07:05:51.996Z,33.60
2019-02-25T07:08:41.755Z,22.17
2019-02-25T07:11:29.095Z,21.10
2019-02-25T07:14:16.204Z,20.20
2019-02-25T07:17:22.852Z,20.57
2019-02-25T07:20:23.139Z,26.53
2019-02-25T07:23:06.259Z,20.13
2019-02-25T07:25:44.771Z,24.10
2019-02-25T07:28:38.744Z,36.73
2019-02-25T07:31:25.419Z,19.43
2019-02-25T07:34:12.816Z,19.23
2019-02-25T07:37:12.848Z,21.30
2019-02-25T07:40:08.296Z,19.77
2019-02-25T07:43:04.836Z,20.33
2019-02-25T07:45:45.200Z,21.80
2019-02-25T07:48:31.776Z,19.00
2019-02-25T07:51:08.581Z,23.67
2019-02-25T07:53:59.356Z,20.33
2019-02-25T07:56:52.958Z,23.73
2019-02-25T07:59:35.471Z,24.57
2019-02-25T08:02:16.411Z,23.40
2019-02-25T08:05:07.415Z,19.93
2019-02-25T08:08:03.407Z,18.50
2019-02-25T08:10:56.553Z,17.73
2019-02-25T08:13:47.004Z,17.60
2019-02-25T08:16:30.965Z,16.70
2019-02-25T08:19:16.577Z,16.53
2019-02-25T08:21:54.951Z,15.20
2019-02-25T08:24:32.269Z,16.93
2019-02-25T08:27:22.405Z,16.73
2019-02-25T08:30:07.900Z,17.67
2019-02-25T08:32:53.734Z,17.90
2019-02-25T08:36:12.163Z,17.00
2019-02-25T08:38:58.773Z,16.80
2019-02-25T08:41:53.454Z,15.50
2019-02-25T08:44:40.364Z,16.90
2019-02-25T08:47:33.176Z,15.37
2019-02-25T08:50:04.194Z,16.00
2019-02-25T08:52:32.115Z,14.77
2019-02-25T08:55:00.324Z,15.87
2019-02-25T08:57:28.274Z,16.00
2019-02-25T08:59:56.232Z,16.17
2019-02-25T09:02:24.303Z,15.63
2019-02-25T09:04:52.286Z,15.00
2019-02-25T09:07:20.926Z,14.67
2019-02-25T09:09:49.312Z,15.63
2019-02-25T09:12:17.643Z,16.07
2019-02-25T09:14:46.384Z,14.90
2019-02-25T09:17:16.132Z,16.17
2019-02-25T09:19:44.217Z,16.53
2019-02-25T09:22:14.091Z,17.90
2019-02-25T09:24:42.268Z,18.00
2019-02-25T09:27:10.914Z,17.40
2019-02-25T09:29:39.898Z,18.67
2019-02-25T09:32:08.547Z,18.20
2019-02-25T09:34:36.534Z,18.03
2019-02-25T09:37:05.175Z,18.40
2019-02-25T09:39:34.192Z,18.20
2019-02-25T09:42:03.041Z,18.20
2019-02-25T09:44:31.023Z,18.00
2019-02-25T09:47:00.048Z,17.60
2019-02-25T09:49:28.635Z,18.27
2019-02-25T09:51:57.206Z,17.03
2019-02-25T09:54:25.728Z,18.83
2019-02-25T09:56:53.713Z,17.77
2019-02-25T09:59:21.724Z,17.60
2019-02-25T10:01:49.708Z,22.23
2019-02-25T10:04:17.576Z,19.10
2019-02-25T10:06:46.320Z,18.43
2019-02-25T10:09:14.384Z,18.80
2019-02-25T10:11:42.341Z,17.80
2019-02-25T10:14:10.217Z,17.20
2019-02-25T10:16:38.540Z,16.50
2019-02-25T10:19:06.432Z,17.00
2019-02-25T10:21:34.367Z,16.60
2019-02-25T10:24:02.269Z,16.50
2019-02-25T10:26:30.236Z,16.10
2019-02-25T10:28:58.271Z,17.60
2019-02-25T10:31:26.145Z,15.77
2019-02-25T10:33:54.141Z,16.77
2019-02-25T10:36:22.157Z,16.60
2019-02-25T10:38:50.066Z,16.73
2019-02-25T10:41:19.664Z,16.20
2019-02-25T10:43:49.920Z,15.60
2019-02-25T10:46:17.751Z,15.77
2019-02-25T10:48:47.361Z,15.03
2019-02-25T10:51:15.432Z,14.23
2019-02-25T10:53:45.105Z,13.67
2019-02-25T10:56:19.926Z,15.07
2019-02-25T10:58:49.478Z,14.33
2019-02-25T11:01:19.736Z,14.37
2019-02-25T11:03:47.906Z,15.00
2019-02-25T11:06:16.884Z,13.60
2019-02-25T11:08:49.124Z,13.10
2019-02-25T11:11:20.985Z,13.03
2019-02-25T11:13:49.833Z,13.87
2019-02-25T11:16:18.687Z,13.10
2019-02-25T11:18:47.589Z,13.43
2019-02-25T11:21:15.522Z,13.70
2019-02-25T11:23:45.105Z,12.20
2019-02-25T11:26:14.568Z,13.33
2019-02-25T11:28:43.767Z,12.37
2019-02-25T11:31:11.832Z,13.40
2019-02-25T11:33:40.721Z,13.50
2019-02-25T11:36:10.443Z,14.80
2019-02-25T11:38:38.470Z,14.27
2019-02-25T11:41:08.815Z,13.27
2019-02-25T11:43:36.276Z,12.90
2019-02-25T11:46:04.801Z,16.83
2019-02-25T11:48:32.794Z,15.20
2019-02-25T11:51:01.922Z,13.00
2019-02-25T11:53:29.887Z,13.00
2019-02-25T11:55:57.776Z,12.07
2019-02-25T11:58:25.727Z,17.43
2019-02-25T12:00:53.611Z,13.97
2019-02-25T12:03:21.596Z,23.10
2019-02-25T12:05:49.634Z,12.27
2019-02-25T12:08:17.494Z,11.77
2019-02-25T12:10:45.442Z,11.90
2019-02-25T12:13:13.394Z,12.37
2019-02-25T12:15:41.249Z,11.90
2019-02-25T12:18:09.360Z,15.30
2019-02-25T12:20:37.227Z,12.87
2019-02-25T12:23:05.403Z,12.47
2019-02-25T12:25:33.376Z,13.00
2019-02-25T12:28:01.414Z,13.20
2019-02-25T12:30:29.392Z,13.17
2019-02-25T12:32:57.465Z,14.43
2019-02-25T12:35:26.084Z,12.93
2019-02-25T12:37:54.096Z,12.80
2019-02-25T12:40:22.092Z,13.17
2019-02-25T12:42:50.085Z,11.03
2019-02-25T12:45:18.026Z,10.50
2019-02-25T12:47:46.113Z,11.87
2019-02-25T12:50:14.080Z,10.27
2019-02-25T12:52:42.087Z,10.63
2019-02-25T12:55:10.571Z,11.17
2019-02-25T12:57:38.583Z,10.90
2019-02-25T13:00:07.538Z,10.60
2019-02-25T13:02:35.478Z,10.40
2019-02-25T13:05:03.478Z,10.67
2019-02-25T13:07:31.536Z,9.87
2019-02-25T13:09:59.503Z,10.30
2019-02-25T13:12:27.463Z,11.40
2019-02-25T13:14:55.460Z,11.93
2019-02-25T13:17:23.711Z,10.50
2019-02-25T13:19:51.679Z,11.30
2019-02-25T13:22:19.645Z,11.00
2019-02-25T13:24:47.702Z,13.80
2019-02-25T13:27:15.656Z,14.30
2019-02-25T13:29:43.699Z,20.90
2019-02-25T13:32:11.649Z,16.40
2019-02-25T13:34:39.695Z,16.90
2019-02-25T13:37:07.675Z,23.07
2019-02-25T13:39:35.644Z,12.53
2019-02-25T13:42:03.715Z,16.40
2019-02-25T13:44:31.678Z,16.23
2019-02-25T13:46:59.636Z,13.17
2019-02-25T13:49:27.596Z,12.50
2019-02-25T13:51:55.667Z,12.07
2019-02-25T13:54:23.630Z,12.20
2019-02-25T13:56:51.842Z,13.30
2019-02-25T13:59:19.807Z,11.63
2019-02-25T14:01:47.771Z,11.13
2019-02-25T14:04:15.826Z,11.20
2019-02-25T14:06:43.906Z,11.80
2019-02-25T14:09:12.549Z,12.20
2019-02-25T14:11:40.534Z,12.00
2019-02-25T14:14:08.964Z,12.70
2019-02-25T14:16:36.926Z,11.83
2019-02-25T14:19:05.296Z,12.03
2019-02-25T14:21:34.522Z,12.53
2019-02-25T14:24:03.083Z,12.27
2019-02-25T14:26:31.039Z,11.20
2019-02-25T14:28:59.123Z,13.37
2019-02-25T14:31:27.287Z,13.17
2019-02-25T14:33:56.787Z,12.60
2019-02-25T14:36:24.855Z,11.50
2019-02-25T14:38:54.145Z,12.70
2019-02-25T14:41:22.447Z,11.83
2019-02-25T14:43:51.553Z,13.07
2019-02-25T14:46:22.559Z,12.40
2019-02-25T14:48:49.828Z,12.63
2019-02-25T14:51:17.809Z,13.37
2019-02-25T14:53:47.428Z,12.67
2019-02-25T14:56:15.520Z,12.70
2019-02-25T14:58:45.329Z,14.10
2019-02-25T15:01:13.193Z,12.60
2019-02-25T15:03:41.231Z,12.70
2019-02-25T15:06:09.520Z,13.70
2019-02-25T15:08:37.546Z,12.83
2019-02-25T15:11:07.134Z,12.23
2019-02-25T15:13:36.682Z,12.80
2019-02-25T15:16:05.064Z,13.63
2019-02-25T15:18:33.013Z,14.20
2019-02-25T15:21:02.498Z,13.97
2019-02-25T15:23:30.775Z,12.30
2019-02-25T15:26:04.981Z,13.77
2019-02-25T15:28:28.337Z,13.23
2019-02-25T15:30:59.721Z,12.20
2019-02-25T15:33:26.050Z,12.33
2019-02-25T15:35:53.994Z,11.67
2019-02-25T15:38:22.049Z,11.23
2019-02-25T15:40:50.028Z,11.60
2019-02-25T15:43:20.341Z,13.13
2019-02-25T15:45:47.743Z,11.97
2019-02-25T15:48:16.694Z,12.73
2019-02-25T15:50:48.079Z,14.13
2019-02-25T15:53:16.208Z,12.37
2019-02-25T15:55:44.333Z,12.80
2019-02-25T15:58:12.411Z,11.47
2019-02-25T16:00:41.006Z,12.33
2019-02-25T16:03:11.024Z,11.37
2019-02-25T16:05:39.031Z,11.90
2019-02-25T16:08:07.748Z,12.43
2019-02-25T16:10:35.744Z,11.97
2019-02-25T16:13:08.259Z,13.53
2019-02-25T16:15:33.767Z,12.27
2019-02-25T16:18:02.579Z,12.80
2019-02-25T16:20:32.635Z,13.80
2019-02-25T16:23:02.292Z,13.70
2019-02-25T16:25:31.738Z,12.07
2019-02-25T16:27:59.965Z,13.37
2019-02-25T16:30:30.623Z,11.70
2019-02-25T16:32:59.663Z,12.00
2019-02-25T16:35:28.048Z,13.20
2019-02-25T16:37:57.604Z,11.70
2019-02-25T16:40:28.480Z,14.27
2019-02-25T16:42:59.461Z,13.43
2019-02-25T16:45:28.173Z,14.00
2019-02-25T16:47:54.949Z,13.80
2019-02-25T16:50:23.283Z,13.93
2019-02-25T16:52:51.524Z,13.00
2019-02-25T16:55:20.650Z,12.20
2019-02-25T16:57:49.965Z,12.03
2019-02-25T17:00:18.435Z,12.60
2019-02-25T17:02:47.776Z,13.93
2019-02-25T17:05:16.027Z,14.10
2019-02-25T17:07:44.362Z,13.13
2019-02-25T17:10:14.049Z,17.30
2019-02-25T17:12:43.704Z,15.73
2019-02-25T17:15:12.492Z,14.70
2019-02-25T17:17:40.523Z,13.20
2019-02-25T17:20:12.318Z,12.80
2019-02-25T17:22:39.442Z,13.20
2019-02-25T17:25:09.777Z,12.30
2019-02-25T17:27:37.335Z,13.50
2019-02-25T17:30:06.223Z,12.50
2019-02-25T17:32:34.236Z,13.10
2019-02-25T17:35:02.967Z,13.03
2019-02-25T17:37:33.610Z,13.57
2019-02-25T17:40:05.791Z,12.20
2019-02-25T17:42:33.574Z,11.87
2019-02-25T17:45:02.565Z,12.87
2019-02-25T17:47:32.676Z,11.77
2019-02-25T17:50:01.509Z,12.03
2019-02-25T17:52:30.126Z,13.30
2019-02-25T17:54:58.169Z,11.90
2019-02-25T17:57:27.703Z,12.30
2019-02-25T17:59:56.183Z,13.40
2019-02-25T18:02:24.326Z,14.60
2019-02-25T18:04:53.251Z,13.27
2019-02-25T18:07:21.913Z,13.03
2019-02-25T18:09:49.985Z,13.03
2019-02-25T18:12:18.958Z,13.20
2019-02-25T18:14:47.487Z,13.37
2019-02-25T18:17:17.489Z,14.60
2019-02-25T18:19:47.792Z,13.80
2019-02-25T18:22:17.237Z,13.60
2019-02-25T18:24:45.580Z,13.30
2019-02-25T18:27:15.577Z,13.60
2019-02-25T18:29:44.062Z,12.60
2019-02-25T18:32:13.269Z,13.87
2019-02-25T18:34:41.557Z,12.60
2019-02-25T18:37:11.324Z,13.17
2019-02-25T18:39:39.448Z,12.73
2019-02-25T18:42:09.485Z,12.47
2019-02-25T18:44:37.222Z,13.80
2019-02-25T18:47:05.271Z,14.90
2019-02-25T18:49:34.973Z,14.07
2019-02-25T18:52:02.979Z,14.87
2019-02-25T18:54:31.050Z,12.97
2019-02-25T18:57:01.132Z,13.47
2019-02-25T18:59:29.759Z,16.97
2019-02-25T19:01:57.813Z,15.07
2019-02-25T19:04:25.993Z,14.27
2019-02-25T19:06:54.086Z,13.80
2019-02-25T19:09:23.127Z,15.37
2019-02-25T19:11:53.023Z,13.87
2019-02-25T19:14:22.063Z,13.77
2019-02-25T19:16:51.169Z,13.97
2019-02-25T19:19:19.362Z,15.47
2019-02-25T19:21:47.926Z,15.67
2019-02-25T19:24:18.740Z,20.87
2019-02-25T19:26:47.405Z,15.27
2019-02-25T19:29:19.257Z,15.83
2019-02-25T19:31:46.454Z,16.00
2019-02-25T19:34:16.047Z,12.03
2019-02-25T19:36:44.135Z,12.00
2019-02-25T19:39:14.404Z,11.90
2019-02-25T19:41:45.098Z,17.70
2019-02-25T19:44:12.727Z,17.13
2019-02-25T19:46:42.895Z,20.23
2019-02-25T19:49:13.569Z,16.13
2019-02-25T19:51:43.283Z,15.97
2019-02-25T19:54:11.665Z,15.90
2019-02-25T19:56:40.785Z,19.00
2019-02-25T19:59:08.998Z,14.40
2019-02-25T20:01:39.237Z,11.60
2019-02-25T20:04:08.960Z,17.83
2019-02-25T20:06:36.328Z,15.00
2019-02-25T20:09:07.460Z,9.60
2019-02-25T20:11:35.321Z,8.93
2019-02-25T20:14:03.303Z,7.90
2019-02-25T20:16:32.295Z,9.23
2019-02-25T20:19:02.328Z,9.53
2019-02-25T20:21:31.014Z,7.73
2019-02-25T20:23:59.060Z,14.80
2019-02-25T20:26:27.257Z,7.97
2019-02-25T20:28:55.240Z,8.50
2019-02-25T20:31:23.283Z,7.97
2019-02-25T20:33:52.914Z,8.30
2019-02-25T20:36:22.070Z,9.10
2019-02-25T20:38:50.577Z,8.50
2019-02-25T20:41:20.511Z,8.57
2019-02-25T20:43:53.211Z,8.13
2019-02-25T20:46:19.997Z,7.70
2019-02-25T20:48:48.492Z,8.37
2019-02-25T20:51:17.216Z,8.20
2019-02-25T20:53:46.149Z,8.97
2019-02-25T20:56:14.975Z,12.10
2019-02-25T20:58:44.661Z,19.00
2019-02-25T21:01:13.733Z,13.93
2019-02-25T21:03:45.782Z,10.23
2019-02-25T21:06:14.377Z,9.07
2019-02-25T21:08:42.752Z,7.40
2019-02-25T21:11:13.453Z,8.40
2019-02-25T21:13:41.494Z,8.60
2019-02-25T21:16:10.523Z,7.87
2019-02-25T21:18:39.264Z,8.20
2019-02-25T21:21:09.376Z,7.37
2019-02-25T21:23:36.946Z,9.17
2019-02-25T21:26:07.443Z,11.10
2019-02-25T21:28:36.490Z,9.03
2019-02-25T21:31:07.186Z,8.70
2019-02-25T21:33:34.755Z,11.13
2019-02-25T21:36:02.807Z,10.40
2019-02-25T21:38:30.813Z,8.20
2019-02-25T21:40:58.855Z,10.63
2019-02-25T21:43:29.082Z,7.23
2019-02-25T21:45:58.729Z,6.83
2019-02-25T21:48:27.528Z,8.17
2019-02-25T21:50:58.259Z,9.13
2019-02-25T21:53:26.116Z,6.97
2019-02-25T21:55:55.493Z,7.60
2019-02-25T21:58:25.435Z,7.43
2019-02-25T22:00:53.402Z,7.60
2019-02-25T22:03:21.856Z,7.70
2019-02-25T22:05:53.242Z,6.50
2019-02-25T22:08:22.159Z,5.90
2019-02-25T22:10:49.540Z,7.07
2019-02-25T22:13:19.153Z,7.50
2019-02-25T22:15:47.743Z,7.17
2019-02-25T22:18:15.774Z,6.77
2019-02-25T22:20:45.283Z,6.60
2019-02-25T22:23:13.406Z,7.07
2019-02-25T22:25:41.390Z,6.70
2019-02-25T22:28:10.005Z,6.80
2019-02-25T22:30:38.143Z,7.13
2019-02-25T22:33:07.894Z,6.97
2019-02-25T22:35:38.085Z,7.07
2019-02-25T22:38:06.015Z,6.90
2019-02-25T22:40:34.951Z,6.30
2019-02-25T22:43:05.209Z,7.10
2019-02-25T22:45:35.176Z,8.50
2019-02-25T22:48:03.112Z,8.83
2019-02-25T22:50:32.922Z,8.87
2019-02-25T22:53:01.666Z,9.00
2019-02-25T22:55:30.437Z,9.03
2019-02-25T22:57:58.375Z,9.30
2019-02-25T23:00:50.948Z,7.93
2019-02-25T23:03:20.909Z,9.47
2019-02-25T23:05:50.871Z,10.17
2019-02-25T23:08:20.882Z,8.83
2019-02-25T23:10:49.355Z,8.87
2019-02-25T23:13:20.018Z,6.83
2019-02-25T23:15:49.531Z,6.67
2019-02-25T23:18:19.331Z,8.10
2019-02-25T23:20:46.886Z,7.60
2019-02-25T23:23:14.853Z,6.87
2019-02-25T23:25:42.790Z,8.10
2019-02-25T23:28:10.779Z,6.83
2019-02-25T23:30:39.639Z,8.30
2019-02-25T23:33:09.791Z,9.77
2019-02-25T23:35:40.805Z,11.27
2019-02-25T23:38:08.193Z,8.27
2019-02-25T23:40:38.258Z,7.73
2019-02-25T23:43:07.482Z,7.10
2019-02-25T23:45:36.189Z,8.73
2019-02-25T23:48:06.340Z,9.50
2019-02-25T23:50:36.137Z,6.43
2019-02-25T23:53:04.275Z,10.73
2019-02-25T23:55:32.286Z,8.10
2019-02-25T23:58:00.329Z,10.10
